Airfield :
LOGIN :

Register | Disclaimer

   EN    FR    IT 

 










Legend :    VFR   Marginal VFR   IFR   Intensive IFR   Very Intensive IFR
Visi :
Ceiling :
>= 8 km
>= 3000ft
5 to 8 km
1000 to 3000 ft
1500m to 5 km
500 to 1000 ft
800 to 1500m
200 to 500 ft
< 800m
< 200 ft
Symbols :   Thunderstorms  Fog  Heavy snow  Heavy precipitations  Wind > 20 kt
SIGMETs :     Misc.  Thunderstorms  Icing  Turbulence  Mountain Waves  Volcanic Ashes







- Airport Elevation : 1367 ft
- IATA code : FDH


EDNY - Friedrichshafen

CURRENT METAR :
  • 201450Z 20007KT 170V240 9999 FEW056 21/09 Q1024

EXPIRED METARs :
  • 201420Z 24008KT 200V290 CAVOK 20/08 Q1024
  • 201350Z 23007KT 200V270 CAVOK 20/09 Q1024
  • 201320Z 28004KT 230V040 CAVOK 20/08 Q1024
  • 201250Z 25006KT 210V300 CAVOK 20/07 Q1024
  • 201220Z 21007KT CAVOK 20/09 Q1024

TAF TAF EDNY
Valid from the 20 at 12:00 until the 21 at 12:00 UTC


201100Z 2012/2112 23005KT 9999 FEW060
BECMG 2016/2018 VRB03KT
BECMG 2109/2111 23005KT
No reported NOTAMs for that airfield.



MET'MAP, your aeronautical weather chart ! - Copyright ORBIFLY December 2007 - Disclaimer

ORBIFLY MET'MAP TEAM :

Programming & Development : Alexandra Zaïnal
Concept & Development : Baudouin d'Aumeries
Co-Development & Prog : Marc-Olivier Méhu
Technical & hardware support : Manuel Goepfert

Contact : metmap@orbifly.com




SOURCES & CREDITS :

   NOAA